Jack Mc Namara Field Airport
KCEC : now visible

Airfield :











YOU CAN JOIN US ON...

 
LOGIN :

Register | Disclaimer

   EN    FR    IT 

 









Legend :    VFR   Marginal VFR   IFR   Intensive IFR   Very Intensive IFR
Visi :
Ceiling :
>= 8 km
>= 3000ft
5 to 8 km
1000 to 3000 ft
1500m to 5 km
500 to 1000 ft
800 to 1500m
200 to 500 ft
< 800m
< 200 ft
Symbols :   Thunderstorms  Fog  Heavy snow  Heavy precipitations  Wind > 20 kt






- Airport Elevation : 61 ft
- IATA code : CEC


KCEC - Jack Mc Namara Field

CURRENT METAR :
  • 100956Z AUTO 00000KT 7SM SCT007 BKN015 OVC024 10/09 A3013 RMK AO2 SLP202 T01000089

EXPIRED METARs :
  • 100930Z AUTO 33004KT 5SM BR BKN006 BKN016 OVC023 11/09 A3012 RMK AO2 T01060089
  • 100856Z AUTO 33004KT 5SM BR FEW009 OVC021 11/09 A3012 RMK AO2 SLP202 T01060094 51007
  • 100756Z AUTO 34004KT 6SM BR FEW014 OVC022 11/09 A3012 RMK AO2 SLP200 T01060094 401390061

TAF KCEC
Valid from the 10 at 10:00 until the 11 at 06:00 UTC


100955Z 1010/1106 33004KT 5SM BR BKN006 BKN016 OVC023
FM101600 33014G20KT 6SM HZ BKN004
FM102000 33017G23KT P6SM BKN010 OVC020
FM110300 34012G18KT P6SM BKN035



MET'MAP, your aeronautical weather chart ! - Copyright ORBIFLY December 2007 - Disclaimer

ORBIFLY MET'MAP TEAM :

Programming & Development : Alexandra Zaïnal
Concept & original design : Baudouin d'Aumeries
Assistance for programming : Marc-Olivier Méhu
Technical & hardware support : Manuel Goepfert

Contact : metmap@orbifly.com




SOURCES & CREDITS :

   NOAA       Earth
Advisory